createdAt,value
2023-03-29T00:02:55.260Z,27.53
2023-03-29T00:06:56.236Z,26.57
2023-03-29T00:14:55.638Z,26.52
2023-03-29T00:22:55.535Z,26.49
2023-03-29T00:30:55.443Z,26.46
2023-03-29T00:38:55.328Z,26.44
2023-03-29T00:46:55.435Z,26.42
2023-03-29T00:54:55.322Z,26.49
2023-03-29T00:58:56.263Z,26.45
2023-03-29T01:02:56.260Z,26.45
2023-03-29T01:06:56.218Z,26.41
2023-03-29T01:10:56.265Z,26.41
2023-03-29T01:14:56.193Z,26.41
2023-03-29T01:18:56.117Z,26.39
2023-03-29T01:22:56.062Z,26.44
2023-03-29T01:26:55.972Z,26.43
2023-03-29T01:30:55.927Z,26.39
2023-03-29T01:34:55.862Z,26.39
2023-03-29T01:38:55.849Z,26.43
2023-03-29T01:42:55.883Z,26.38
2023-03-29T01:46:56.051Z,26.34
2023-03-29T01:50:56.209Z,26.36
2023-03-29T01:54:56.355Z,26.30
2023-03-29T01:58:56.467Z,26.39
2023-03-29T02:06:55.844Z,26.32
2023-03-29T02:14:56.204Z,26.29
2023-03-29T02:22:56.137Z,26.32
2023-03-29T02:26:57.081Z,26.35
2023-03-29T02:30:57.026Z,26.34
2023-03-29T02:34:56.965Z,26.33
2023-03-29T02:38:56.920Z,26.25
2023-03-29T02:42:57.015Z,26.34
2023-03-29T02:46:57.247Z,26.28
2023-03-29T02:50:57.346Z,26.31
2023-03-29T02:54:57.277Z,26.29
2023-03-29T02:58:57.747Z,26.29
2023-03-29T03:02:58.756Z,26.30
2023-03-29T03:06:57.101Z,26.32
2023-03-29T03:10:57.046Z,26.31
2023-03-29T03:14:57.013Z,26.23
2023-03-29T03:18:56.950Z,26.29
2023-03-29T03:22:56.853Z,26.29
2023-03-29T03:26:56.801Z,26.28
2023-03-29T03:30:56.923Z,26.33
2023-03-29T03:34:56.960Z,26.28
2023-03-29T03:38:57.114Z,26.29
2023-03-29T03:42:57.247Z,26.33
2023-03-29T03:46:57.310Z,26.28
2023-03-29T03:50:57.299Z,26.27
2023-03-29T03:54:57.393Z,26.26
2023-03-29T03:58:57.539Z,26.31
2023-03-29T04:02:57.730Z,26.32
2023-03-29T04:06:57.743Z,26.24
2023-03-29T04:10:57.756Z,26.30
2023-03-29T04:18:56.909Z,26.27
2023-03-29T04:22:57.867Z,26.20
2023-03-29T04:30:57.142Z,26.25
2023-03-29T04:38:57.747Z,26.27
2023-03-29T04:46:57.456Z,26.23
2023-03-29T04:54:57.681Z,26.28
2023-03-29T05:02:58.020Z,26.25
2023-03-29T05:10:58.258Z,26.29
2023-03-29T09:02:58.930Z,29.86
2023-03-29T09:07:00.120Z,30.33
2023-03-29T11:02:57.037Z,31.61
2023-03-29T11:10:56.896Z,30.95
2023-03-29T11:18:56.405Z,31.28
2023-03-29T11:22:57.400Z,31.47
2023-03-29T11:26:57.399Z,31.39
2023-03-29T11:34:56.403Z,31.80
2023-03-29T11:46:56.335Z,32.07
2023-03-29T11:50:57.404Z,32.06
2023-03-29T11:58:56.922Z,32.16
2023-03-29T12:06:56.920Z,31.22
2023-03-29T12:14:56.909Z,28.96
2023-03-29T12:22:56.921Z,28.50
2023-03-29T12:30:57.432Z,30.64
2023-03-29T12:42:56.946Z,32.03
2023-03-29T12:50:56.488Z,32.66
2023-03-29T12:54:57.457Z,33.27
2023-03-29T12:58:57.461Z,30.61
2023-03-29T13:02:57.477Z,29.16
2023-03-29T13:10:55.915Z,29.62
2023-03-29T13:18:55.967Z,32.67
2023-03-29T13:26:55.550Z,33.17
2023-03-29T13:30:56.487Z,32.80
2023-03-29T13:34:56.354Z,32.65
2023-03-29T13:38:56.279Z,32.58
2023-03-29T13:42:56.146Z,32.46
2023-03-29T13:46:56.491Z,32.25
2023-03-29T13:50:56.487Z,32.16
2023-03-29T13:54:56.508Z,32.11
2023-03-29T13:58:56.493Z,32.08
2023-03-29T14:02:56.568Z,31.83
2023-03-29T14:06:56.479Z,31.97
2023-03-29T14:10:56.542Z,31.91
2023-03-29T14:14:59.434Z,31.94
2023-03-29T14:18:56.479Z,31.87
2023-03-29T14:22:55.979Z,31.85
2023-03-29T14:26:55.892Z,31.87
2023-03-29T14:30:55.997Z,31.79
2023-03-29T14:34:56.488Z,31.74
2023-03-29T14:38:55.990Z,31.74
2023-03-29T14:42:55.515Z,31.71
2023-03-29T14:46:55.487Z,31.62
2023-03-29T14:50:55.418Z,31.58
2023-03-29T14:54:56.004Z,31.58
2023-03-29T14:58:55.606Z,31.51
2023-03-29T15:02:55.720Z,31.53
2023-03-29T15:06:56.003Z,31.40
2023-03-29T15:10:55.858Z,31.40
2023-03-29T15:14:56.033Z,31.39
2023-03-29T15:18:56.040Z,31.31
2023-03-29T15:26:55.255Z,31.25
2023-03-29T15:34:55.450Z,31.20
2023-03-29T15:42:55.705Z,31.26
2023-03-29T19:22:57.384Z,30.19
2023-03-29T19:30:57.699Z,30.23
2023-03-29T19:38:57.453Z,30.20
2023-03-29T19:46:57.425Z,30.24
2023-03-29T19:54:57.229Z,30.18
2023-03-29T20:02:57.263Z,30.21
2023-03-29T20:10:57.096Z,30.20
2023-03-29T20:14:58.042Z,30.18
2023-03-29T20:18:58.011Z,30.15
2023-03-29T20:22:57.940Z,30.12
2023-03-29T20:26:57.863Z,30.18
2023-03-29T20:30:57.928Z,30.11
2023-03-29T20:34:57.887Z,30.12
2023-03-29T20:38:57.974Z,30.17
2023-03-29T20:42:57.731Z,30.10
2023-03-29T20:46:57.653Z,30.13
2023-03-29T20:50:57.772Z,30.07
2023-03-29T20:54:57.561Z,30.12
2023-03-29T20:58:57.728Z,30.04
2023-03-29T21:02:57.782Z,30.10
2023-03-29T21:06:57.656Z,30.00
2023-03-29T21:10:57.579Z,30.04
2023-03-29T21:14:57.555Z,30.00
2023-03-29T21:18:57.509Z,30.04
2023-03-29T21:22:57.475Z,29.98
2023-03-29T21:26:57.378Z,30.07
2023-03-29T21:30:57.352Z,30.00
2023-03-29T21:34:57.291Z,30.02
2023-03-29T21:38:57.255Z,30.02
2023-03-29T21:42:57.173Z,30.00
2023-03-29T21:46:57.169Z,29.96
2023-03-29T21:50:57.234Z,30.05
2023-03-29T21:54:57.218Z,30.00
2023-03-29T21:58:57.133Z,29.96
2023-03-29T22:02:57.163Z,29.96
2023-03-29T22:06:57.056Z,29.92
2023-03-29T22:10:57.096Z,29.98
2023-03-29T22:14:56.988Z,29.86
2023-03-29T22:18:57.199Z,29.90
2023-03-29T22:22:57.156Z,29.91
2023-03-29T22:26:57.142Z,29.97
2023-03-29T22:30:57.065Z,29.94
2023-03-29T22:34:57.032Z,29.92
2023-03-29T22:38:56.994Z,29.94
2023-03-29T22:42:56.980Z,29.88
2023-03-29T22:46:57.171Z,29.90
2023-03-29T22:50:57.133Z,29.89
2023-03-29T22:54:57.102Z,29.89
2023-03-29T22:58:57.092Z,29.84
2023-03-29T23:02:57.155Z,29.87
2023-03-29T23:06:57.003Z,29.92
2023-03-29T23:56:51.696Z,31.10
